sensor_id;sensor_type;location;lat;lon;timestamp;pressure;altitude;pressure_sealevel;temperature;humidity
60832;BME280;46665;51.558;-0.448;2023-12-20T00:00:28;156153.72;;;2.88;100.00
60832;BME280;46665;51.558;-0.448;2023-12-20T00:03:12;156158.91;;;2.90;100.00
60832;BME280;46665;51.558;-0.448;2023-12-20T00:05:56;156153.72;;;2.88;100.00
60832;BME280;46665;51.558;-0.448;2023-12-20T00:08:40;156157.63;;;2.89;100.00
60832;BME280;46665;51.558;-0.448;2023-12-20T00:11:24;156148.56;;;2.86;100.00
60832;BME280;46665;51.558;-0.448;2023-12-20T00:14:08;156155.00;;;2.88;100.00
60832;BME280;46665;51.558;-0.448;2023-12-20T00:16:52;156165.34;;;2.92;100.00
60832;BME280;46665;51.558;-0.448;2023-12-20T00:19:36;156153.72;;;2.88;100.00
60832;BME280;46665;51.558;-0.448;2023-12-20T00:22:20;156153.72;;;2.88;100.00
60832;BME280;46665;51.558;-0.448;2023-12-20T00:25:04;156173.06;;;2.95;100.00
60832;BME280;46665;51.558;-0.448;2023-12-20T00:27:48;156183.38;;;2.99;100.00
60832;BME280;46665;51.558;-0.448;2023-12-20T00:30:32;156178.22;;;2.97;100.00
60832;BME280;46665;51.558;-0.448;2023-12-20T00:33:16;156161.44;;;2.91;100.00
60832;BME280;46665;51.558;-0.448;2023-12-20T00:36:00;156170.50;;;2.94;100.00
60832;BME280;46665;51.558;-0.448;2023-12-20T00:38:44;156152.44;;;2.87;100.00
60832;BME280;46665;51.558;-0.448;2023-12-20T00:41:28;156152.44;;;2.87;100.00
60832;BME280;46665;51.558;-0.448;2023-12-20T00:44:12;156148.56;;;2.86;100.00
60832;BME280;46665;51.558;-0.448;2023-12-20T00:46:57;156147.28;;;2.85;100.00
60832;BME280;46665;51.558;-0.448;2023-12-20T00:49:41;156133.13;;;2.79;100.00
60832;BME280;46665;51.558;-0.448;2023-12-20T00:52:25;156103.47;;;2.68;100.00
60832;BME280;46665;51.558;-0.448;2023-12-20T00:55:09;156097.00;;;2.65;100.00
60832;BME280;46665;51.558;-0.448;2023-12-20T00:57:53;156082.84;;;2.59;100.00
60832;BME280;46665;51.558;-0.448;2023-12-20T01:00:37;156086.75;;;2.61;100.00
60832;BME280;46665;51.558;-0.448;2023-12-20T01:03:21;156089.28;;;2.62;100.00
60832;BME280;46665;51.558;-0.448;2023-12-20T01:06:05;156069.97;;;2.54;100.00
60832;BME280;46665;51.558;-0.448;2023-12-20T01:08:49;156071.25;;;2.55;100.00
60832;BME280;46665;51.558;-0.448;2023-12-20T01:11:33;156075.13;;;2.56;100.00
60832;BME280;46665;51.558;-0.448;2023-12-20T01:14:17;156078.97;;;2.58;100.00
60832;BME280;46665;51.558;-0.448;2023-12-20T01:17:01;156085.41;;;2.60;100.00
60832;BME280;46665;51.558;-0.448;2023-12-20T01:19:45;156109.91;;;2.70;100.00
60832;BME280;46665;51.558;-0.448;2023-12-20T01:22:29;156129.22;;;2.78;100.00
60832;BME280;46665;51.558;-0.448;2023-12-20T01:25:14;156144.72;;;2.84;100.00
60832;BME280;46665;51.558;-0.448;2023-12-20T01:27:57;156151.16;;;2.87;100.00
60832;BME280;46665;51.558;-0.448;2023-12-20T01:30:41;156149.88;;;2.86;100.00
60832;BME280;46665;51.558;-0.448;2023-12-20T01:33:25;156146.00;;;2.85;100.00
60832;BME280;46665;51.558;-0.448;2023-12-20T01:36:09;156143.41;;;2.83;100.00
60832;BME280;46665;51.558;-0.448;2023-12-20T01:38:53;156160.16;;;2.90;100.00
60832;BME280;46665;51.558;-0.448;2023-12-20T01:41:37;156169.22;;;2.94;100.00
60832;BME280;46665;51.558;-0.448;2023-12-20T01:44:21;156180.78;;;2.98;100.00
60832;BME280;46665;51.558;-0.448;2023-12-20T01:47:05;156187.22;;;3.01;100.00
60832;BME280;46665;51.558;-0.448;2023-12-20T01:49:49;156196.28;;;3.04;100.00
60832;BME280;46665;51.558;-0.448;2023-12-20T01:52:34;156211.72;;;3.11;100.00
60832;BME280;46665;51.558;-0.448;2023-12-20T01:55:19;156218.19;;;3.13;100.00
60832;BME280;46665;51.558;-0.448;2023-12-20T01:58:04;156223.34;;;3.15;100.00
60832;BME280;46665;51.558;-0.448;2023-12-20T02:00:49;156216.91;;;3.13;100.00
60832;BME280;46665;51.558;-0.448;2023-12-20T02:03:33;156224.63;;;3.16;100.00
60832;BME280;46665;51.558;-0.448;2023-12-20T02:06:21;156224.63;;;3.16;100.00
60832;BME280;46665;51.558;-0.448;2023-12-20T02:09:07;156223.34;;;3.15;100.00
60832;BME280;46665;51.558;-0.448;2023-12-20T02:11:51;156214.34;;;3.12;100.00
60832;BME280;46665;51.558;-0.448;2023-12-20T02:14:35;156223.34;;;3.15;100.00
60832;BME280;46665;51.558;-0.448;2023-12-20T02:17:20;156206.56;;;3.09;100.00
60832;BME280;46665;51.558;-0.448;2023-12-20T02:20:04;156210.44;;;3.10;100.00
60832;BME280;46665;51.558;-0.448;2023-12-20T02:22:49;156220.78;;;3.14;100.00
60832;BME280;46665;51.558;-0.448;2023-12-20T02:25:33;156219.44;;;3.14;100.00
60832;BME280;46665;51.558;-0.448;2023-12-20T02:28:17;156222.06;;;3.15;100.00
60832;BME280;46665;51.558;-0.448;2023-12-20T02:31:01;156215.63;;;3.12;100.00
60832;BME280;46665;51.558;-0.448;2023-12-20T02:33:45;156223.34;;;3.15;100.00
60832;BME280;46665;51.558;-0.448;2023-12-20T02:36:29;156220.78;;;3.14;100.00
60832;BME280;46665;51.558;-0.448;2023-12-20T02:39:13;156223.34;;;3.15;100.00
60832;BME280;46665;51.558;-0.448;2023-12-20T02:41:57;156213.00;;;3.11;100.00
60832;BME280;46665;51.558;-0.448;2023-12-20T02:44:40;156216.91;;;3.13;100.00
60832;BME280;46665;51.558;-0.448;2023-12-20T02:47:24;156225.91;;;3.16;100.00
60832;BME280;46665;51.558;-0.448;2023-12-20T02:50:08;156231.06;;;3.18;100.00
60832;BME280;46665;51.558;-0.448;2023-12-20T02:52:52;156240.13;;;3.22;100.00
60832;BME280;46665;51.558;-0.448;2023-12-20T02:55:36;156223.34;;;3.15;100.00
60832;BME280;46665;51.558;-0.448;2023-12-20T02:58:20;156213.00;;;3.11;100.00
60832;BME280;46665;51.558;-0.448;2023-12-20T03:01:04;156200.13;;;3.06;100.00
60832;BME280;46665;51.558;-0.448;2023-12-20T03:03:48;156200.13;;;3.06;100.00
60832;BME280;46665;51.558;-0.448;2023-12-20T03:06:32;156193.69;;;3.03;100.00
60832;BME280;46665;51.558;-0.448;2023-12-20T03:09:16;156189.84;;;3.02;100.00
60832;BME280;46665;51.558;-0.448;2023-12-20T03:12:00;156180.78;;;2.98;100.00
60832;BME280;46665;51.558;-0.448;2023-12-20T03:14:44;156161.44;;;2.91;100.00
60832;BME280;46665;51.558;-0.448;2023-12-20T03:17:28;156166.63;;;2.93;100.00
60832;BME280;46665;51.558;-0.448;2023-12-20T03:20:12;156178.22;;;2.97;100.00
60832;BME280;46665;51.558;-0.448;2023-12-20T03:22:56;156174.34;;;2.96;100.00
60832;BME280;46665;51.558;-0.448;2023-12-20T03:25:40;156178.22;;;2.97;100.00
60832;BME280;46665;51.558;-0.448;2023-12-20T03:28:24;156183.38;;;2.99;100.00
60832;BME280;46665;51.558;-0.448;2023-12-20T03:31:09;156182.13;;;2.99;100.00
60832;BME280;46665;51.558;-0.448;2023-12-20T03:33:54;156187.22;;;3.01;100.00
60832;BME280;46665;51.558;-0.448;2023-12-20T03:36:38;156193.69;;;3.03;100.00
60832;BME280;46665;51.558;-0.448;2023-12-20T03:39:22;156195.00;;;3.04;100.00
60832;BME280;46665;51.558;-0.448;2023-12-20T03:42:06;156198.84;;;3.06;100.00
60832;BME280;46665;51.558;-0.448;2023-12-20T03:44:50;156214.34;;;3.12;100.00
60832;BME280;46665;51.558;-0.448;2023-12-20T03:47:34;156207.88;;;3.09;100.00
60832;BME280;46665;51.558;-0.448;2023-12-20T03:50:18;156219.44;;;3.14;100.00
60832;BME280;46665;51.558;-0.448;2023-12-20T03:53:02;156213.00;;;3.11;100.00
60832;BME280;46665;51.558;-0.448;2023-12-20T03:55:47;156218.19;;;3.13;100.00
60832;BME280;46665;51.558;-0.448;2023-12-20T03:58:31;156227.22;;;3.17;100.00
60832;BME280;46665;51.558;-0.448;2023-12-20T04:01:15;156218.19;;;3.13;100.00
60832;BME280;46665;51.558;-0.448;2023-12-20T04:03:59;156218.19;;;3.13;100.00
60832;BME280;46665;51.558;-0.448;2023-12-20T04:06:43;156227.22;;;3.17;100.00
60832;BME280;46665;51.558;-0.448;2023-12-20T04:09:27;156222.06;;;3.15;100.00
60832;BME280;46665;51.558;-0.448;2023-12-20T04:12:11;156220.78;;;3.14;100.00
60832;BME280;46665;51.558;-0.448;2023-12-20T04:14:55;156215.63;;;3.12;100.00
60832;BME280;46665;51.558;-0.448;2023-12-20T04:17:39;156229.78;;;3.18;100.00
60832;BME280;46665;51.558;-0.448;2023-12-20T04:20:23;156236.22;;;3.20;100.00
60832;BME280;46665;51.558;-0.448;2023-12-20T04:23:07;156213.00;;;3.11;100.00
60832;BME280;46665;51.558;-0.448;2023-12-20T04:25:51;156225.91;;;3.16;100.00
60832;BME280;46665;51.558;-0.448;2023-12-20T04:28:35;156211.72;;;3.11;100.00
60832;BME280;46665;51.558;-0.448;2023-12-20T04:31:19;156222.06;;;3.15;100.00
60832;BME280;46665;51.558;-0.448;2023-12-20T04:34:03;156219.44;;;3.14;100.00
60832;BME280;46665;51.558;-0.448;2023-12-20T04:36:47;156223.34;;;3.15;100.00
60832;BME280;46665;51.558;-0.448;2023-12-20T04:39:31;156225.91;;;3.16;100.00
60832;BME280;46665;51.558;-0.448;2023-12-20T04:42:15;156231.06;;;3.18;100.00
60832;BME280;46665;51.558;-0.448;2023-12-20T04:44:59;156231.06;;;3.18;100.00
60832;BME280;46665;51.558;-0.448;2023-12-20T04:47:43;156204.00;;;3.08;100.00
60832;BME280;46665;51.558;-0.448;2023-12-20T04:50:27;156197.56;;;3.05;100.00
60832;BME280;46665;51.558;-0.448;2023-12-20T04:53:11;156206.56;;;3.09;100.00
60832;BME280;46665;51.558;-0.448;2023-12-20T04:55:55;156185.94;;;3.00;100.00
60832;BME280;46665;51.558;-0.448;2023-12-20T04:58:39;156195.00;;;3.04;100.00
60832;BME280;46665;51.558;-0.448;2023-12-20T05:01:23;156192.41;;;3.03;100.00
60832;BME280;46665;51.558;-0.448;2023-12-20T05:04:06;156191.13;;;3.02;100.00
60832;BME280;46665;51.558;-0.448;2023-12-20T05:06:50;156200.13;;;3.06;100.00
60832;BME280;46665;51.558;-0.448;2023-12-20T05:09:34;156222.06;;;3.15;100.00
60832;BME280;46665;51.558;-0.448;2023-12-20T05:12:18;156228.50;;;3.17;100.00
60832;BME280;46665;51.558;-0.448;2023-12-20T05:15:04;156241.41;;;3.22;100.00
60832;BME280;46665;51.558;-0.448;2023-12-20T05:17:49;156219.44;;;3.14;100.00
60832;BME280;46665;51.558;-0.448;2023-12-20T05:20:33;156243.97;;;3.23;100.00
60832;BME280;46665;51.558;-0.448;2023-12-20T05:23:17;156267.19;;;3.33;100.00
60832;BME280;46665;51.558;-0.448;2023-12-20T05:26:01;156272.34;;;3.35;100.00
60832;BME280;46665;51.558;-0.448;2023-12-20T05:28:45;156274.91;;;3.36;100.00
60832;BME280;46665;51.558;-0.448;2023-12-20T05:31:29;156277.50;;;3.37;100.00
60832;BME280;46665;51.558;-0.448;2023-12-20T05:34:14;156304.59;;;3.47;100.00
60832;BME280;46665;51.558;-0.448;2023-12-20T05:36:58;156296.84;;;3.44;100.00
60832;BME280;46665;51.558;-0.448;2023-12-20T05:39:42;156308.41;;;3.49;100.00
60832;BME280;46665;51.558;-0.448;2023-12-20T05:42:26;156305.84;;;3.48;100.00
60832;BME280;46665;51.558;-0.448;2023-12-20T05:45:10;156320.03;;;3.54;100.00
60832;BME280;46665;51.558;-0.448;2023-12-20T05:47:55;156326.47;;;3.56;100.00
60832;BME280;46665;51.558;-0.448;2023-12-20T05:50:38;156326.47;;;3.56;100.00
60832;BME280;46665;51.558;-0.448;2023-12-20T05:53:23;156318.75;;;3.53;100.00
60832;BME280;46665;51.558;-0.448;2023-12-20T05:56:07;156318.75;;;3.53;100.00
60832;BME280;46665;51.558;-0.448;2023-12-20T05:58:51;156318.75;;;3.53;100.00
60832;BME280;46665;51.558;-0.448;2023-12-20T06:01:35;156309.75;;;3.50;100.00
60832;BME280;46665;51.558;-0.448;2023-12-20T06:04:19;156316.19;;;3.52;100.00
60832;BME280;46665;51.558;-0.448;2023-12-20T06:07:03;156326.47;;;3.56;100.00
60832;BME280;46665;51.558;-0.448;2023-12-20T06:09:47;156338.09;;;3.61;100.00
60832;BME280;46665;51.558;-0.448;2023-12-20T06:12:31;156336.81;;;3.60;100.00
60832;BME280;46665;51.558;-0.448;2023-12-20T06:15:17;156340.66;;;3.62;100.00
60832;BME280;46665;51.558;-0.448;2023-12-20T06:18:01;156340.66;;;3.62;100.00
60832;BME280;46665;51.558;-0.448;2023-12-20T06:20:45;156334.22;;;3.59;100.00
60832;BME280;46665;51.558;-0.448;2023-12-20T06:23:29;156340.66;;;3.62;100.00
60832;BME280;46665;51.558;-0.448;2023-12-20T06:26:13;156352.28;;;3.66;100.00
60832;BME280;46665;51.558;-0.448;2023-12-20T06:28:57;156335.53;;;3.60;100.00
60832;BME280;46665;51.558;-0.448;2023-12-20T06:31:41;156361.34;;;3.70;100.00
60832;BME280;46665;51.558;-0.448;2023-12-20T06:34:25;156352.28;;;3.66;100.00
60832;BME280;46665;51.558;-0.448;2023-12-20T06:37:10;156352.28;;;3.66;100.00
60832;BME280;46665;51.558;-0.448;2023-12-20T06:39:54;156352.28;;;3.66;100.00
60832;BME280;46665;51.558;-0.448;2023-12-20T06:42:39;156357.44;;;3.68;100.00
60832;BME280;46665;51.558;-0.448;2023-12-20T06:45:23;156378.06;;;3.77;100.00
60832;BME280;46665;51.558;-0.448;2023-12-20T06:48:07;156380.69;;;3.78;100.00
60832;BME280;46665;51.558;-0.448;2023-12-20T06:50:51;156388.41;;;3.81;100.00
60832;BME280;46665;51.558;-0.448;2023-12-20T06:53:35;156385.78;;;3.80;100.00
60832;BME280;46665;51.558;-0.448;2023-12-20T06:56:19;156381.97;;;3.78;100.00
60832;BME280;46665;51.558;-0.448;2023-12-20T06:59:03;156400.00;;;3.85;100.00
60832;BME280;46665;51.558;-0.448;2023-12-20T07:01:50;156406.47;;;3.88;100.00
60832;BME280;46665;51.558;-0.448;2023-12-20T07:04:35;156423.19;;;3.95;100.00
60832;BME280;46665;51.558;-0.448;2023-12-20T07:07:22;156421.94;;;3.94;100.00
60832;BME280;46665;51.558;-0.448;2023-12-20T07:10:08;156442.56;;;4.02;100.00
60832;BME280;46665;51.558;-0.448;2023-12-20T07:12:52;156451.59;;;4.06;100.00
60832;BME280;46665;51.558;-0.448;2023-12-20T07:15:39;156463.22;;;4.10;100.00
60832;BME280;46665;51.558;-0.448;2023-12-20T07:18:23;156459.34;;;4.09;100.00
60832;BME280;46665;51.558;-0.448;2023-12-20T07:21:07;156477.41;;;4.16;100.00
60832;BME280;46665;51.558;-0.448;2023-12-20T07:23:51;156489.03;;;4.21;100.00
60832;BME280;46665;51.558;-0.448;2023-12-20T07:26:35;156486.41;;;4.20;100.00
60832;BME280;46665;51.558;-0.448;2023-12-20T07:29:21;156485.13;;;4.19;100.00
60832;BME280;46665;51.558;-0.448;2023-12-20T07:32:05;156507.06;;;4.28;100.00
60832;BME280;46665;51.558;-0.448;2023-12-20T07:34:50;156514.81;;;4.31;100.00
60832;BME280;46665;51.558;-0.448;2023-12-20T07:37:34;156512.22;;;4.30;100.00
60832;BME280;46665;51.558;-0.448;2023-12-20T07:40:17;156509.66;;;4.29;100.00
60832;BME280;46665;51.558;-0.448;2023-12-20T07:43:01;156516.09;;;4.31;100.00
60832;BME280;46665;51.558;-0.448;2023-12-20T07:45:45;156517.38;;;4.32;100.00
60832;BME280;46665;51.558;-0.448;2023-12-20T07:48:30;156518.69;;;4.32;100.00
60832;BME280;46665;51.558;-0.448;2023-12-20T07:51:14;156521.28;;;4.33;100.00
60832;BME280;46665;51.558;-0.448;2023-12-20T07:53:58;156530.28;;;4.37;100.00
60832;BME280;46665;51.558;-0.448;2023-12-20T07:56:42;156523.84;;;4.34;100.00
60832;BME280;46665;51.558;-0.448;2023-12-20T07:59:29;156541.91;;;4.42;100.00
60832;BME280;46665;51.558;-0.448;2023-12-20T08:02:13;156545.81;;;4.43;100.00
60832;BME280;46665;51.558;-0.448;2023-12-20T08:04:57;156553.53;;;4.46;100.00
60832;BME280;46665;51.558;-0.448;2023-12-20T08:07:41;156552.25;;;4.46;100.00
60832;BME280;46665;51.558;-0.448;2023-12-20T08:10:25;156552.25;;;4.46;100.00
60832;BME280;46665;51.558;-0.448;2023-12-20T08:13:09;156565.16;;;4.51;100.00
60832;BME280;46665;51.558;-0.448;2023-12-20T08:15:53;156578.06;;;4.56;100.00
60832;BME280;46665;51.558;-0.448;2023-12-20T08:18:37;156590.97;;;4.61;100.00
60832;BME280;46665;51.558;-0.448;2023-12-20T08:21:21;156596.09;;;4.63;100.00
60832;BME280;46665;51.558;-0.448;2023-12-20T08:24:06;156596.09;;;4.63;100.00
60832;BME280;46665;51.558;-0.448;2023-12-20T08:26:50;156606.44;;;4.67;100.00
60832;BME280;46665;51.558;-0.448;2023-12-20T08:29:35;156623.22;;;4.74;100.00
60832;BME280;46665;51.558;-0.448;2023-12-20T08:32:19;156629.69;;;4.76;100.00
60832;BME280;46665;51.558;-0.448;2023-12-20T08:35:04;156651.59;;;4.85;100.00
60832;BME280;46665;51.558;-0.448;2023-12-20T08:37:48;156654.22;;;4.86;100.00
60832;BME280;46665;51.558;-0.448;2023-12-20T08:40:32;156673.56;;;4.94;100.00
60832;BME280;46665;51.558;-0.448;2023-12-20T08:43:15;156650.31;;;4.85;100.00
60832;BME280;46665;51.558;-0.448;2023-12-20T08:45:59;156668.41;;;4.92;100.00
60832;BME280;46665;51.558;-0.448;2023-12-20T08:48:43;156685.16;;;4.98;100.00
60832;BME280;46665;51.558;-0.448;2023-12-20T08:51:27;156685.16;;;4.98;100.00
60832;BME280;46665;51.558;-0.448;2023-12-20T08:54:11;156701.94;;;5.05;100.00
60832;BME280;46665;51.558;-0.448;2023-12-20T08:56:57;156710.97;;;5.09;100.00
60832;BME280;46665;51.558;-0.448;2023-12-20T08:59:40;156734.22;;;5.18;100.00
60832;BME280;46665;51.558;-0.448;2023-12-20T09:02:24;156749.75;;;5.24;100.00
60832;BME280;46665;51.558;-0.448;2023-12-20T09:05:08;156760.03;;;5.28;100.00
60832;BME280;46665;51.558;-0.448;2023-12-20T09:07:52;156771.66;;;5.33;100.00
60832;BME280;46665;51.558;-0.448;2023-12-20T09:10:37;156780.69;;;5.36;100.00
60832;BME280;46665;51.558;-0.448;2023-12-20T09:13:21;156802.66;;;5.45;100.00
60832;BME280;46665;51.558;-0.448;2023-12-20T09:16:10;156832.34;;;5.57;100.00
60832;BME280;46665;51.558;-0.448;2023-12-20T09:18:54;156834.94;;;5.58;100.00
60832;BME280;46665;51.558;-0.448;2023-12-20T09:21:38;156851.69;;;5.64;100.00
60832;BME280;46665;51.558;-0.448;2023-12-20T09:24:22;156890.50;;;5.80;100.00
60832;BME280;46665;51.558;-0.448;2023-12-20T09:27:06;156930.56;;;5.96;100.00
60832;BME280;46665;51.558;-0.448;2023-12-20T09:29:50;156961.56;;;6.08;100.00
60832;BME280;46665;51.558;-0.448;2023-12-20T09:32:34;156988.69;;;6.19;100.00
60832;BME280;46665;51.558;-0.448;2023-12-20T09:35:18;157005.50;;;6.25;100.00
60832;BME280;46665;51.558;-0.448;2023-12-20T09:38:02;157005.50;;;6.25;100.00
60832;BME280;46665;51.558;-0.448;2023-12-20T09:40:46;157021.00;;;6.32;100.00
60832;BME280;46665;51.558;-0.448;2023-12-20T09:43:30;157037.81;;;6.38;100.00
60832;BME280;46665;51.558;-0.448;2023-12-20T09:46:17;157064.94;;;6.49;100.00
60832;BME280;46665;51.558;-0.448;2023-12-20T09:49:04;157067.50;;;6.50;100.00
60832;BME280;46665;51.558;-0.448;2023-12-20T09:51:53;157075.22;;;6.53;100.00
60832;BME280;46665;51.558;-0.448;2023-12-20T09:54:38;157088.16;;;6.58;100.00
60832;BME280;46665;51.558;-0.448;2023-12-20T09:57:22;157101.06;;;6.63;100.00
60832;BME280;46665;51.558;-0.448;2023-12-20T10:00:06;157101.06;;;6.63;100.00
60832;BME280;46665;51.558;-0.448;2023-12-20T10:02:57;157111.44;;;6.67;100.00
60832;BME280;46665;51.558;-0.448;2023-12-20T10:05:44;157124.34;;;6.72;100.00
60832;BME280;46665;51.558;-0.448;2023-12-20T10:08:28;157119.19;;;6.70;100.00
60832;BME280;46665;51.558;-0.448;2023-12-20T10:11:14;157145.03;;;6.81;100.00
60832;BME280;46665;51.558;-0.448;2023-12-20T10:14:01;157136.00;;;6.77;100.00
60832;BME280;46665;51.558;-0.448;2023-12-20T10:16:45;157147.63;;;6.82;100.00
60832;BME280;46665;51.558;-0.448;2023-12-20T10:19:30;157155.38;;;6.85;100.00
60832;BME280;46665;51.558;-0.448;2023-12-20T10:22:15;157150.19;;;6.83;100.00
60832;BME280;46665;51.558;-0.448;2023-12-20T10:24:59;157157.94;;;6.86;100.00
60832;BME280;46665;51.558;-0.448;2023-12-20T10:27:43;157157.94;;;6.86;100.00
60832;BME280;46665;51.558;-0.448;2023-12-20T10:30:27;157157.94;;;6.86;100.00
60832;BME280;46665;51.558;-0.448;2023-12-20T10:33:11;157168.31;;;6.90;100.00
60832;BME280;46665;51.558;-0.448;2023-12-20T10:35:55;157183.78;;;6.96;100.00
60832;BME280;46665;51.558;-0.448;2023-12-20T10:38:42;157187.69;;;6.98;100.00
60832;BME280;46665;51.558;-0.448;2023-12-20T10:41:31;157190.25;;;6.99;100.00
60832;BME280;46665;51.558;-0.448;2023-12-20T10:44:16;157210.97;;;7.07;100.00
60832;BME280;46665;51.558;-0.448;2023-12-20T10:47:01;157200.63;;;7.03;100.00
60832;BME280;46665;51.558;-0.448;2023-12-20T10:49:46;157213.53;;;7.08;100.00
60832;BME280;46665;51.558;-0.448;2023-12-20T10:52:32;157209.66;;;7.06;100.00
60832;BME280;46665;51.558;-0.448;2023-12-20T10:55:16;157217.44;;;7.09;100.00
60832;BME280;46665;51.558;-0.448;2023-12-20T10:58:09;157222.56;;;7.11;100.00
60832;BME280;46665;51.558;-0.448;2023-12-20T11:01:00;157236.81;;;7.17;100.00
60832;BME280;46665;51.558;-0.448;2023-12-20T11:03:51;157242.00;;;7.19;100.00
60832;BME280;46665;51.558;-0.448;2023-12-20T11:06:52;157235.53;;;7.16;100.00
60832;BME280;46665;51.558;-0.448;2023-12-20T11:09:41;157244.56;;;7.20;100.00
60832;BME280;46665;51.558;-0.448;2023-12-20T11:12:41;157261.41;;;7.27;100.00
60832;BME280;46665;51.558;-0.448;2023-12-20T11:15:27;157254.94;;;7.24;100.00
60832;BME280;46665;51.558;-0.448;2023-12-20T11:18:12;157267.88;;;7.29;100.00
60832;BME280;46665;51.558;-0.448;2023-12-20T11:21:00;157289.81;;;7.38;100.00
60832;BME280;46665;51.558;-0.448;2023-12-20T11:23:46;157289.81;;;7.38;100.00
60832;BME280;46665;51.558;-0.448;2023-12-20T11:26:30;157297.56;;;7.41;100.00
60832;BME280;46665;51.558;-0.448;2023-12-20T11:29:34;157315.69;;;7.48;100.00
60832;BME280;46665;51.558;-0.448;2023-12-20T11:37:53;157332.50;;;7.55;100.00
60832;BME280;46665;51.558;-0.448;2023-12-20T11:40:37;157340.25;;;7.58;100.00
60832;BME280;46665;51.558;-0.448;2023-12-20T11:43:38;157364.81;;;7.68;100.00
60832;BME280;46665;51.558;-0.448;2023-12-20T11:46:22;157360.94;;;7.66;100.00
60832;BME280;46665;51.558;-0.448;2023-12-20T11:49:06;157357.09;;;7.65;100.00
60832;BME280;46665;51.558;-0.448;2023-12-20T11:51:50;157367.41;;;7.69;100.00
60832;BME280;46665;51.558;-0.448;2023-12-20T11:54:35;157382.94;;;7.75;100.00
60832;BME280;46665;51.558;-0.448;2023-12-20T11:57:19;157384.22;;;7.75;100.00
60832;BME280;46665;51.558;-0.448;2023-12-20T12:00:04;157394.53;;;7.79;100.00
60832;BME280;46665;51.558;-0.448;2023-12-20T12:02:57;157386.78;;;7.76;100.00
60832;BME280;46665;51.558;-0.448;2023-12-20T12:05:41;157372.56;;;7.71;100.00
60832;BME280;46665;51.558;-0.448;2023-12-20T12:08:25;157377.75;;;7.73;100.00
60832;BME280;46665;51.558;-0.448;2023-12-20T12:11:09;157404.91;;;7.84;100.00
60832;BME280;46665;51.558;-0.448;2023-12-20T12:13:53;157426.88;;;7.92;100.00
60832;BME280;46665;51.558;-0.448;2023-12-20T12:16:37;157434.66;;;7.95;100.00
60832;BME280;46665;51.558;-0.448;2023-12-20T12:19:22;157460.53;;;8.06;100.00
60832;BME280;46665;51.558;-0.448;2023-12-20T12:22:12;157518.75;;;8.29;100.00
60832;BME280;46665;51.558;-0.448;2023-12-20T12:24:59;157544.63;;;8.39;100.00
60832;BME280;46665;51.558;-0.448;2023-12-20T12:27:52;157562.78;;;8.46;100.00
60832;BME280;46665;51.558;-0.448;2023-12-20T12:30:36;157569.25;;;8.49;100.00
60832;BME280;46665;51.558;-0.448;2023-12-20T12:33:20;157580.84;;;8.53;100.00
60832;BME280;46665;51.558;-0.448;2023-12-20T12:36:04;157588.66;;;8.56;100.00
60832;BME280;46665;51.558;-0.448;2023-12-20T12:38:51;157617.09;;;8.67;100.00
60832;BME280;46665;51.558;-0.448;2023-12-20T12:41:35;157602.88;;;8.62;100.00
60832;BME280;46665;51.558;-0.448;2023-12-20T12:44:19;157611.91;;;8.65;100.00
60832;BME280;46665;51.558;-0.448;2023-12-20T12:47:03;157610.63;;;8.65;100.00
60832;BME280;46665;51.558;-0.448;2023-12-20T12:49:51;157610.63;;;8.65;100.00
60832;BME280;46665;51.558;-0.448;2023-12-20T12:52:35;157608.06;;;8.64;100.00
60832;BME280;46665;51.558;-0.448;2023-12-20T12:55:19;157595.13;;;8.59;100.00
60832;BME280;46665;51.558;-0.448;2023-12-20T12:58:04;157597.69;;;8.60;100.00
60832;BME280;46665;51.558;-0.448;2023-12-20T13:00:48;157598.97;;;8.60;100.00
60832;BME280;46665;51.558;-0.448;2023-12-20T13:03:32;157592.50;;;8.58;100.00
60832;BME280;46665;51.558;-0.448;2023-12-20T13:06:17;157613.25;;;8.66;100.00
60832;BME280;46665;51.558;-0.448;2023-12-20T13:09:02;157622.28;;;8.70;100.00
60832;BME280;46665;51.558;-0.448;2023-12-20T13:11:45;157615.81;;;8.67;100.00
60832;BME280;46665;51.558;-0.448;2023-12-20T13:14:32;157635.22;;;8.75;100.00
60832;BME280;46665;51.558;-0.448;2023-12-20T13:17:17;157636.50;;;8.75;100.00
60832;BME280;46665;51.558;-0.448;2023-12-20T13:20:01;157652.06;;;8.81;100.00
60832;BME280;46665;51.558;-0.448;2023-12-20T13:22:45;157652.06;;;8.81;100.00
60832;BME280;46665;51.558;-0.448;2023-12-20T13:25:28;157649.47;;;8.80;100.00
60832;BME280;46665;51.558;-0.448;2023-12-20T13:28:13;157654.63;;;8.82;100.00
60832;BME280;46665;51.558;-0.448;2023-12-20T13:30:57;157666.31;;;8.87;100.00
60832;BME280;46665;51.558;-0.448;2023-12-20T13:33:41;157675.34;;;8.90;100.00
60832;BME280;46665;51.558;-0.448;2023-12-20T13:36:25;157667.59;;;8.87;100.00
60832;BME280;46665;51.558;-0.448;2023-12-20T13:39:12;157689.56;;;8.96;100.00
60832;BME280;46665;51.558;-0.448;2023-12-20T13:41:56;157692.19;;;8.97;100.00
60832;BME280;46665;51.558;-0.448;2023-12-20T13:44:41;157698.66;;;9.00;100.00
60832;BME280;46665;51.558;-0.448;2023-12-20T13:47:25;157714.16;;;9.06;100.00
60832;BME280;46665;51.558;-0.448;2023-12-20T13:50:09;157716.78;;;9.07;100.00
60832;BME280;46665;51.558;-0.448;2023-12-20T13:52:53;157711.59;;;9.05;100.00
60832;BME280;46665;51.558;-0.448;2023-12-20T13:55:37;157727.09;;;9.11;100.00
60832;BME280;46665;51.558;-0.448;2023-12-20T13:58:21;157718.06;;;9.07;100.00
60832;BME280;46665;51.558;-0.448;2023-12-20T14:01:05;157727.09;;;9.11;100.00
60832;BME280;46665;51.558;-0.448;2023-12-20T14:03:49;157720.63;;;9.08;100.00
60832;BME280;46665;51.558;-0.448;2023-12-20T14:06:33;157718.06;;;9.07;100.00
60832;BME280;46665;51.558;-0.448;2023-12-20T14:09:17;157711.59;;;9.05;100.00
60832;BME280;46665;51.558;-0.448;2023-12-20T14:12:01;157721.97;;;9.09;100.00
60832;BME280;46665;51.558;-0.448;2023-12-20T14:14:46;157718.06;;;9.07;100.00